sensor_id;sensor_type;location;lat;lon;timestamp;pressure;altitude;pressure_sealevel;temperature;humidity
33163;BME280;29282;45.656;11.302;2023-10-08T00:01:34;99160.97;;;22.32;58.83
33163;BME280;29282;45.656;11.302;2023-10-08T00:04:00;99146.81;;;22.34;58.63
33163;BME280;29282;45.656;11.302;2023-10-08T00:06:29;99143.25;;;22.33;58.61
33163;BME280;29282;45.656;11.302;2023-10-08T00:08:55;99145.22;;;22.33;58.61
33163;BME280;29282;45.656;11.302;2023-10-08T00:11:25;99143.59;;;22.32;58.85
33163;BME280;29282;45.656;11.302;2023-10-08T00:13:54;99140.81;;;22.32;58.23
33163;BME280;29282;45.656;11.302;2023-10-08T00:16:21;99140.81;;;22.32;58.28
33163;BME280;29282;45.656;11.302;2023-10-08T00:18:47;99141.66;;;22.32;58.49
33163;BME280;29282;45.656;11.302;2023-10-08T00:21:17;99132.53;;;22.32;58.74
33163;BME280;29282;45.656;11.302;2023-10-08T00:23:51;99133.69;;;22.31;58.42
33163;BME280;29282;45.656;11.302;2023-10-08T00:26:23;99128.19;;;22.31;58.58
33163;BME280;29282;45.656;11.302;2023-10-08T00:31:25;99117.13;;;22.31;58.53
33163;BME280;29282;45.656;11.302;2023-10-08T00:33:57;99123.47;;;22.31;58.56
33163;BME280;29282;45.656;11.302;2023-10-08T00:36:22;99117.13;;;22.31;58.56
33163;BME280;29282;45.656;11.302;2023-10-08T00:38:50;99119.91;;;22.31;58.76
33163;BME280;29282;45.656;11.302;2023-10-08T00:41:23;99113.56;;;22.30;58.52
33163;BME280;29282;45.656;11.302;2023-10-08T00:43:53;99110.00;;;22.30;58.42
33163;BME280;29282;45.656;11.302;2023-10-08T00:46:21;99109.66;;;22.31;58.53
33163;BME280;29282;45.656;11.302;2023-10-08T00:48:53;99101.72;;;22.30;58.32
33163;BME280;29282;45.656;11.302;2023-10-08T00:51:22;99110.00;;;22.30;58.50
33163;BME280;29282;45.656;11.302;2023-10-08T00:54:00;99102.53;;;22.30;58.11
33163;BME280;29282;45.656;11.302;2023-10-08T00:56:36;99096.22;;;22.30;58.46
33163;BME280;29282;45.656;11.302;2023-10-08T00:59:20;99092.66;;;22.29;58.59
33163;BME280;29282;45.656;11.302;2023-10-08T01:01:48;99087.94;;;22.30;58.34
33163;BME280;29282;45.656;11.302;2023-10-08T01:04:25;99078.03;;;22.28;58.35
33163;BME280;29282;45.656;11.302;2023-10-08T01:06:56;99072.53;;;22.28;58.39
33163;BME280;29282;45.656;11.302;2023-10-08T01:09:27;99077.22;;;22.28;58.36
33163;BME280;29282;45.656;11.302;2023-10-08T01:12:16;99068.94;;;22.28;58.48
33163;BME280;29282;45.656;11.302;2023-10-08T01:15:02;99069.75;;;22.28;58.42
33163;BME280;29282;45.656;11.302;2023-10-08T01:17:43;99069.75;;;22.28;58.28
33163;BME280;29282;45.656;11.302;2023-10-08T01:20:24;99066.16;;;22.28;58.33
33163;BME280;29282;45.656;11.302;2023-10-08T01:23:06;99061.81;;;22.27;58.52
33163;BME280;29282;45.656;11.302;2023-10-08T01:25:42;99062.59;;;22.27;58.13
33163;BME280;29282;45.656;11.302;2023-10-08T01:28:08;99052.38;;;22.28;58.41
33163;BME280;29282;45.656;11.302;2023-10-08T01:30:41;99050.44;;;22.28;58.29
33163;BME280;29282;45.656;11.302;2023-10-08T01:33:08;99057.88;;;22.28;57.96
33163;BME280;29282;45.656;11.302;2023-10-08T01:35:40;99060.66;;;22.28;58.26
33163;BME280;29282;45.656;11.302;2023-10-08T01:38:06;99062.59;;;22.27;58.18
33163;BME280;29282;45.656;11.302;2023-10-08T01:40:33;99057.88;;;22.28;58.29
33163;BME280;29282;45.656;11.302;2023-10-08T01:42:58;99057.09;;;22.27;58.36
33163;BME280;29282;45.656;11.302;2023-10-08T01:45:30;99054.31;;;22.27;57.99
33163;BME280;29282;45.656;11.302;2023-10-08T01:47:58;99053.53;;;22.27;57.92
33163;BME280;29282;45.656;11.302;2023-10-08T01:50:23;99054.31;;;22.27;57.91
33163;BME280;29282;45.656;11.302;2023-10-08T01:52:54;99043.28;;;22.27;58.08
33163;BME280;29282;45.656;11.302;2023-10-08T01:55:20;99041.69;;;22.26;57.81
33163;BME280;29282;45.656;11.302;2023-10-08T01:57:48;99033.41;;;22.26;58.08
33163;BME280;29282;45.656;11.302;2023-10-08T02:00:15;99033.41;;;22.26;58.20
33163;BME280;29282;45.656;11.302;2023-10-08T02:02:52;99033.41;;;22.26;58.29
33163;BME280;29282;45.656;11.302;2023-10-08T02:05:19;99034.19;;;22.27;57.98
33163;BME280;29282;45.656;11.302;2023-10-08T02:07:49;99034.19;;;22.27;58.00
33163;BME280;29282;45.656;11.302;2023-10-08T02:10:16;99032.59;;;22.26;57.96
33163;BME280;29282;45.656;11.302;2023-10-08T02:12:41;99022.34;;;22.26;57.84
33163;BME280;29282;45.656;11.302;2023-10-08T02:15:08;99027.06;;;22.26;57.90
33163;BME280;29282;45.656;11.302;2023-10-08T02:17:34;99019.91;;;22.25;57.93
33163;BME280;29282;45.656;11.302;2023-10-08T02:20:00;99015.22;;;22.25;57.93
33163;BME280;29282;45.656;11.302;2023-10-08T02:22:29;99013.59;;;22.24;57.94
33163;BME280;29282;45.656;11.302;2023-10-08T02:24:55;99025.44;;;22.25;57.83
33163;BME280;29282;45.656;11.302;2023-10-08T02:27:29;99018.00;;;22.25;57.88
33163;BME280;29282;45.656;11.302;2023-10-08T02:29:56;99015.22;;;22.25;58.04
33163;BME280;29282;45.656;11.302;2023-10-08T02:32:22;99008.09;;;22.24;57.57
33163;BME280;29282;45.656;11.302;2023-10-08T02:34:48;99010.84;;;22.24;58.15
33163;BME280;29282;45.656;11.302;2023-10-08T02:37:15;99006.13;;;22.25;58.13
33163;BME280;29282;45.656;11.302;2023-10-08T02:39:40;99003.34;;;22.25;57.95
33163;BME280;29282;45.656;11.302;2023-10-08T02:42:06;99002.56;;;22.24;57.89
33163;BME280;29282;45.656;11.302;2023-10-08T02:44:36;99002.56;;;22.24;57.91
33163;BME280;29282;45.656;11.302;2023-10-08T02:47:08;99005.31;;;22.24;57.63
33163;BME280;29282;45.656;11.302;2023-10-08T02:49:33;98997.84;;;22.25;57.64
33163;BME280;29282;45.656;11.302;2023-10-08T02:52:00;98999.00;;;22.24;58.06
33163;BME280;29282;45.656;11.302;2023-10-08T02:54:29;98999.00;;;22.24;57.74
33163;BME280;29282;45.656;11.302;2023-10-08T02:57:01;98990.72;;;22.24;57.80
33163;BME280;29282;45.656;11.302;2023-10-08T02:59:35;98992.69;;;22.23;57.89
33163;BME280;29282;45.656;11.302;2023-10-08T03:02:11;98986.34;;;22.23;57.72
33163;BME280;29282;45.656;11.302;2023-10-08T03:04:55;98983.59;;;22.23;57.48
33163;BME280;29282;45.656;11.302;2023-10-08T03:07:20;98980.84;;;22.23;58.08
33163;BME280;29282;45.656;11.302;2023-10-08T03:09:50;98988.31;;;22.22;57.65
33163;BME280;29282;45.656;11.302;2023-10-08T03:12:19;98982.00;;;22.22;57.87
33163;BME280;29282;45.656;11.302;2023-10-08T03:14:50;98983.25;;;22.24;57.76
33163;BME280;29282;45.656;11.302;2023-10-08T03:17:30;98985.19;;;22.24;57.57
33163;BME280;29282;45.656;11.302;2023-10-08T03:20:02;98985.56;;;22.22;57.86
33163;BME280;29282;45.656;11.302;2023-10-08T03:22:48;98984.75;;;22.22;57.61
33163;BME280;29282;45.656;11.302;2023-10-08T03:25:15;98991.88;;;22.23;57.89
33163;BME280;29282;45.656;11.302;2023-10-08T03:27:46;98985.56;;;22.22;57.91
33163;BME280;29282;45.656;11.302;2023-10-08T03:30:13;98972.88;;;22.21;57.69
33163;BME280;29282;45.656;11.302;2023-10-08T03:32:44;98980.34;;;22.21;57.55
33163;BME280;29282;45.656;11.302;2023-10-08T03:35:11;98978.41;;;22.21;57.84
33163;BME280;29282;45.656;11.302;2023-10-08T03:37:38;98978.41;;;22.21;57.92
33163;BME280;29282;45.656;11.302;2023-10-08T03:40:07;98991.88;;;22.23;57.80
33163;BME280;29282;45.656;11.302;2023-10-08T03:42:56;98981.16;;;22.21;57.89
33163;BME280;29282;45.656;11.302;2023-10-08T03:45:22;98980.34;;;22.21;57.65
33163;BME280;29282;45.656;11.302;2023-10-08T03:48:06;98977.59;;;22.21;57.38
33163;BME280;29282;45.656;11.302;2023-10-08T03:50:35;98976.81;;;22.20;57.51
33163;BME280;29282;45.656;11.302;2023-10-08T03:53:08;98974.84;;;22.21;57.39
33163;BME280;29282;45.656;11.302;2023-10-08T03:55:38;98985.88;;;22.21;57.70
33163;BME280;29282;45.656;11.302;2023-10-08T03:58:09;98983.91;;;22.21;57.74
33163;BME280;29282;45.656;11.302;2023-10-08T04:00:54;98983.47;;;22.19;57.38
33163;BME280;29282;45.656;11.302;2023-10-08T04:03:36;98978.75;;;22.20;57.34
33163;BME280;29282;45.656;11.302;2023-10-08T04:06:29;98974.03;;;22.20;57.67
33163;BME280;29282;45.656;11.302;2023-10-08T04:09:05;98982.31;;;22.20;57.73
33163;BME280;29282;45.656;11.302;2023-10-08T04:11:33;98976.81;;;22.20;57.70
33163;BME280;29282;45.656;11.302;2023-10-08T04:14:07;98981.53;;;22.20;57.70
33163;BME280;29282;45.656;11.302;2023-10-08T04:16:33;98982.31;;;22.20;57.46
33163;BME280;29282;45.656;11.302;2023-10-08T04:19:03;98977.97;;;22.19;57.44
33163;BME280;29282;45.656;11.302;2023-10-08T04:21:29;98980.72;;;22.19;57.34
33163;BME280;29282;45.656;11.302;2023-10-08T04:23:55;98982.69;;;22.19;57.54
33163;BME280;29282;45.656;11.302;2023-10-08T04:26:22;98982.69;;;22.19;57.30
33163;BME280;29282;45.656;11.302;2023-10-08T04:28:52;98983.47;;;22.19;57.39
33163;BME280;29282;45.656;11.302;2023-10-08T04:31:38;98977.97;;;22.19;57.64
33163;BME280;29282;45.656;11.302;2023-10-08T04:34:05;98977.97;;;22.19;57.74
33163;BME280;29282;45.656;11.302;2023-10-08T04:36:48;98986.25;;;22.19;57.53
33163;BME280;29282;45.656;11.302;2023-10-08T04:39:20;98989.00;;;22.19;57.72
33163;BME280;29282;45.656;11.302;2023-10-08T04:41:57;98984.28;;;22.20;57.58
33163;BME280;29282;45.656;11.302;2023-10-08T04:44:25;98982.69;;;22.19;57.55
33163;BME280;29282;45.656;11.302;2023-10-08T04:46:51;98984.59;;;22.18;57.63
33163;BME280;29282;45.656;11.302;2023-10-08T04:49:19;98988.19;;;22.19;57.21
33163;BME280;29282;45.656;11.302;2023-10-08T04:51:47;98981.03;;;22.18;57.61
33163;BME280;29282;45.656;11.302;2023-10-08T04:54:14;98984.59;;;22.18;57.56
33163;BME280;29282;45.656;11.302;2023-10-08T04:56:43;98986.56;;;22.18;57.46
33163;BME280;29282;45.656;11.302;2023-10-08T04:59:09;98986.56;;;22.18;57.16
33163;BME280;29282;45.656;11.302;2023-10-08T05:01:37;98990.47;;;22.17;57.33
33163;BME280;29282;45.656;11.302;2023-10-08T05:04:14;98989.31;;;22.18;57.20
33163;BME280;29282;45.656;11.302;2023-10-08T05:06:51;98988.53;;;22.17;57.41
33163;BME280;29282;45.656;11.302;2023-10-08T05:09:26;98986.56;;;22.18;57.36
33163;BME280;29282;45.656;11.302;2023-10-08T05:12:04;98979.44;;;22.17;57.32
33163;BME280;29282;45.656;11.302;2023-10-08T05:14:36;98982.19;;;22.17;57.42
33163;BME280;29282;45.656;11.302;2023-10-08T05:17:10;98989.31;;;22.18;57.64
33163;BME280;29282;45.656;11.302;2023-10-08T05:19:41;98992.09;;;22.18;57.45
33163;BME280;29282;45.656;11.302;2023-10-08T05:22:10;98993.25;;;22.17;57.42
33163;BME280;29282;45.656;11.302;2023-10-08T05:24:55;98988.53;;;22.17;57.29
33163;BME280;29282;45.656;11.302;2023-10-08T05:27:38;98989.69;;;22.16;57.60
33163;BME280;29282;45.656;11.302;2023-10-08T05:30:16;98989.69;;;22.16;57.25
33163;BME280;29282;45.656;11.302;2023-10-08T05:32:43;98992.44;;;22.16;57.17
33163;BME280;29282;45.656;11.302;2023-10-08T05:35:28;98996.81;;;22.17;57.43
33163;BME280;29282;45.656;11.302;2023-10-08T05:38:16;98998.75;;;22.17;57.28
33163;BME280;29282;45.656;11.302;2023-10-08T05:40:48;98992.44;;;22.16;57.25
33163;BME280;29282;45.656;11.302;2023-10-08T05:43:34;98979.78;;;22.15;57.31
33163;BME280;29282;45.656;11.302;2023-10-08T05:49:07;98999.91;;;22.16;57.26
33163;BME280;29282;45.656;11.302;2023-10-08T05:51:36;98994.41;;;22.16;57.42
33163;BME280;29282;45.656;11.302;2023-10-08T05:54:19;98995.50;;;22.15;57.36
33163;BME280;29282;45.656;11.302;2023-10-08T05:57:00;98993.59;;;22.15;57.41
33163;BME280;29282;45.656;11.302;2023-10-08T05:59:41;98995.50;;;22.15;57.49
33163;BME280;29282;45.656;11.302;2023-10-08T06:02:32;99001.88;;;22.15;57.27
33163;BME280;29282;45.656;11.302;2023-10-08T06:04:59;99009.28;;;22.15;57.35
33163;BME280;29282;45.656;11.302;2023-10-08T06:07:53;99015.69;;;22.15;57.15
33163;BME280;29282;45.656;11.302;2023-10-08T06:13:07;99010.97;;;22.16;57.39
33163;BME280;29282;45.656;11.302;2023-10-08T06:15:49;99004.63;;;22.15;57.05
33163;BME280;29282;45.656;11.302;2023-10-08T06:18:29;99018.44;;;22.15;57.44
33163;BME280;29282;45.656;11.302;2023-10-08T06:20:56;99025.84;;;22.15;56.96
33163;BME280;29282;45.656;11.302;2023-10-08T06:23:24;99025.84;;;22.15;56.98
33163;BME280;29282;45.656;11.302;2023-10-08T06:25:51;99027.00;;;22.14;57.45
33163;BME280;29282;45.656;11.302;2023-10-08T06:28:25;99028.63;;;22.15;57.13
33163;BME280;29282;45.656;11.302;2023-10-08T06:30:54;99038.84;;;22.14;57.47
33163;BME280;29282;45.656;11.302;2023-10-08T06:33:21;99040.53;;;22.15;56.92
33163;BME280;29282;45.656;11.302;2023-10-08T06:35:47;99048.91;;;22.19;56.98
33163;BME280;29282;45.656;11.302;2023-10-08T06:38:33;99044.66;;;22.21;57.20
33163;BME280;29282;45.656;11.302;2023-10-08T06:41:00;99052.25;;;22.24;57.16
33163;BME280;29282;45.656;11.302;2023-10-08T06:43:30;99048.81;;;22.27;56.90
33163;BME280;29282;45.656;11.302;2023-10-08T06:45:56;99053.53;;;22.27;57.02
33163;BME280;29282;45.656;11.302;2023-10-08T06:48:24;99057.22;;;22.31;56.95
33163;BME280;29282;45.656;11.302;2023-10-08T06:50:53;99053.66;;;22.31;56.91
33163;BME280;29282;45.656;11.302;2023-10-08T06:53:22;99048.59;;;22.33;56.85
33163;BME280;29282;45.656;11.302;2023-10-08T06:55:48;99054.13;;;22.33;56.75
33163;BME280;29282;45.656;11.302;2023-10-08T06:58:22;99051.00;;;22.34;57.14
33163;BME280;29282;45.656;11.302;2023-10-08T07:00:48;99049.88;;;22.35;57.13
33163;BME280;29282;45.656;11.302;2023-10-08T07:03:15;99051.81;;;22.35;57.26
33163;BME280;29282;45.656;11.302;2023-10-08T07:05:51;99053.44;;;22.36;57.06
33163;BME280;29282;45.656;11.302;2023-10-08T07:08:24;99048.72;;;22.36;57.23
33163;BME280;29282;45.656;11.302;2023-10-08T07:10:51;99058.59;;;22.37;57.35
33163;BME280;29282;45.656;11.302;2023-10-08T07:13:17;99046.41;;;22.38;56.98
33163;BME280;29282;45.656;11.302;2023-10-08T07:15:50;99046.41;;;22.38;56.87
33163;BME280;29282;45.656;11.302;2023-10-08T07:18:15;99041.72;;;22.39;57.12
33163;BME280;29282;45.656;11.302;2023-10-08T07:20:50;99034.22;;;22.39;57.36
33163;BME280;29282;45.656;11.302;2023-10-08T07:23:25;99041.34;;;22.40;57.13
33163;BME280;29282;45.656;11.302;2023-10-08T07:25:57;99039.41;;;22.41;57.05
33163;BME280;29282;45.656;11.302;2023-10-08T07:28:25;99038.59;;;22.40;57.30
33163;BME280;29282;45.656;11.302;2023-10-08T07:30:52;99033.06;;;22.40;57.11
33163;BME280;29282;45.656;11.302;2023-10-08T07:33:18;99038.59;;;22.40;57.13
33163;BME280;29282;45.656;11.302;2023-10-08T07:35:47;99036.31;;;22.42;56.95
33163;BME280;29282;45.656;11.302;2023-10-08T07:38:25;99035.16;;;22.43;57.14
33163;BME280;29282;45.656;11.302;2023-10-08T07:40:55;99039.50;;;22.44;57.05
33163;BME280;29282;45.656;11.302;2023-10-08T07:43:21;99035.94;;;22.44;57.13
33163;BME280;29282;45.656;11.302;2023-10-08T07:45:46;99032.88;;;22.45;57.07
33163;BME280;29282;45.656;11.302;2023-10-08T07:48:12;99034.47;;;22.46;56.96
33163;BME280;29282;45.656;11.302;2023-10-08T07:50:45;99033.66;;;22.46;57.11
33163;BME280;29282;45.656;11.302;2023-10-08T07:53:18;99038.38;;;22.45;56.90
33163;BME280;29282;45.656;11.302;2023-10-08T07:55:47;99043.56;;;22.47;57.06
33163;BME280;29282;45.656;11.302;2023-10-08T07:58:14;99046.31;;;22.47;56.99
33163;BME280;29282;45.656;11.302;2023-10-08T08:00:40;99045.50;;;22.46;57.42
33163;BME280;29282;45.656;11.302;2023-10-08T08:03:06;99046.31;;;22.47;56.98
33163;BME280;29282;45.656;11.302;2023-10-08T08:05:32;99047.91;;;22.48;57.15
33163;BME280;29282;45.656;11.302;2023-10-08T08:08:02;99041.25;;;22.49;56.83
33163;BME280;29282;45.656;11.302;2023-10-08T08:10:31;99042.06;;;22.49;57.33
33163;BME280;29282;45.656;11.302;2023-10-08T08:13:04;99040.47;;;22.48;57.11
33163;BME280;29282;45.656;11.302;2023-10-08T08:15:32;99042.06;;;22.49;56.85
33163;BME280;29282;45.656;11.302;2023-10-08T08:17:59;99045.28;;;22.51;57.13
33163;BME280;29282;45.656;11.302;2023-10-08T08:20:25;99045.28;;;22.51;57.05
33163;BME280;29282;45.656;11.302;2023-10-08T08:23:04;99043.34;;;22.52;56.98
33163;BME280;29282;45.656;11.302;2023-10-08T08:25:41;99043.34;;;22.52;57.16
33163;BME280;29282;45.656;11.302;2023-10-08T08:28:26;99052.41;;;22.52;57.12
33163;BME280;29282;45.656;11.302;2023-10-08T08:30:54;99053.22;;;22.53;56.99
33163;BME280;29282;45.656;11.302;2023-10-08T08:33:21;99052.06;;;22.54;57.29
33163;BME280;29282;45.656;11.302;2023-10-08T08:36:00;99050.94;;;22.55;57.52
33163;BME280;29282;45.656;11.302;2023-10-08T08:38:27;99060.03;;;22.56;57.42
33163;BME280;29282;45.656;11.302;2023-10-08T08:41:03;99064.75;;;22.55;57.43
33163;BME280;29282;45.656;11.302;2023-10-08T08:43:38;99062.91;;;22.59;57.36
33163;BME280;29282;45.656;11.302;2023-10-08T08:46:09;99060.94;;;22.60;57.55
33163;BME280;29282;45.656;11.302;2023-10-08T08:48:40;99059.78;;;22.61;57.53
33163;BME280;29282;45.656;11.302;2023-10-08T08:51:06;99064.19;;;22.62;57.67
33163;BME280;29282;45.656;11.302;2023-10-08T08:53:36;99059.09;;;22.64;57.63
33163;BME280;29282;45.656;11.302;2023-10-08T08:56:02;99058.78;;;22.65;57.78
33163;BME280;29282;45.656;11.302;2023-10-08T08:58:33;99062.66;;;22.64;57.79
33163;BME280;29282;45.656;11.302;2023-10-08T09:01:00;99062.34;;;22.66;58.07
33163;BME280;29282;45.656;11.302;2023-10-08T09:03:26;99063.81;;;22.63;57.90
33163;BME280;29282;45.656;11.302;2023-10-08T09:05:59;99059.09;;;22.64;58.47
33163;BME280;29282;45.656;11.302;2023-10-08T09:08:29;99060.25;;;22.63;58.71
33163;BME280;29282;45.656;11.302;2023-10-08T09:10:59;99059.09;;;22.64;58.60
33163;BME280;29282;45.656;11.302;2023-10-08T09:13:27;99059.09;;;22.64;58.88
33163;BME280;29282;45.656;11.302;2023-10-08T09:16:14;99055.91;;;22.62;58.39
33163;BME280;29282;45.656;11.302;2023-10-08T09:18:58;99054.25;;;22.61;58.86
33163;BME280;29282;45.656;11.302;2023-10-08T09:21:23;99057.81;;;22.61;58.71
33163;BME280;29282;45.656;11.302;2023-10-08T09:23:50;99061.41;;;22.62;58.56
33163;BME280;29282;45.656;11.302;2023-10-08T09:26:22;99052.28;;;22.61;58.51
33163;BME280;29282;45.656;11.302;2023-10-08T09:28:48;99052.66;;;22.60;58.61
33163;BME280;29282;45.656;11.302;2023-10-08T09:31:15;99043.22;;;22.61;58.55
33163;BME280;29282;45.656;11.302;2023-10-08T09:33:43;99041.59;;;22.60;58.78
33163;BME280;29282;45.656;11.302;2023-10-08T09:36:09;99034.13;;;22.60;58.56
33163;BME280;29282;45.656;11.302;2023-10-08T09:38:44;99031.38;;;22.60;58.54
33163;BME280;29282;45.656;11.302;2023-10-08T09:41:11;99028.59;;;22.60;58.92
33163;BME280;29282;45.656;11.302;2023-10-08T09:43:38;99029.41;;;22.61;58.50
33163;BME280;29282;45.656;11.302;2023-10-08T09:46:08;99025.03;;;22.60;58.56
33163;BME280;29282;45.656;11.302;2023-10-08T09:48:38;99026.63;;;22.61;58.79
33163;BME280;29282;45.656;11.302;2023-10-08T09:51:10;99022.38;;;22.63;58.42
33163;BME280;29282;45.656;11.302;2023-10-08T09:56:36;99010.88;;;22.61;58.65
33163;BME280;29282;45.656;11.302;2023-10-08T09:59:02;99004.53;;;22.61;58.57
33163;BME280;29282;45.656;11.302;2023-10-08T10:01:28;99006.97;;;22.62;58.56
33163;BME280;29282;45.656;11.302;2023-10-08T10:03:57;99000.66;;;22.62;58.82
33163;BME280;29282;45.656;11.302;2023-10-08T10:06:26;99004.53;;;22.61;58.39
33163;BME280;29282;45.656;11.302;2023-10-08T10:08:55;99006.19;;;22.62;58.47
33163;BME280;29282;45.656;11.302;2023-10-08T10:11:26;99003.75;;;22.60;58.68
33163;BME280;29282;45.656;11.302;2023-10-08T10:13:59;98998.22;;;22.60;58.52
33163;BME280;29282;45.656;11.302;2023-10-08T10:16:25;99002.94;;;22.60;58.49
33163;BME280;29282;45.656;11.302;2023-10-08T10:18:55;99006.19;;;22.62;58.07
33163;BME280;29282;45.656;11.302;2023-10-08T10:21:29;99005.72;;;22.60;58.48
33163;BME280;29282;45.656;11.302;2023-10-08T10:23:56;99015.59;;;22.61;58.39
33163;BME280;29282;45.656;11.302;2023-10-08T10:31:46;99015.25;;;22.62;58.44
33163;BME280;29282;45.656;11.302;2023-10-08T10:34:22;99007.31;;;22.61;58.23
33163;BME280;29282;45.656;11.302;2023-10-08T10:36:51;99004.53;;;22.61;58.45
33163;BME280;29282;45.656;11.302;2023-10-08T10:39:22;99010.88;;;22.61;58.17
33163;BME280;29282;45.656;11.302;2023-10-08T10:41:53;99005.34;;;22.61;58.06
33163;BME280;29282;45.656;11.302;2023-10-08T10:44:48;98999.81;;;22.61;58.46
33163;BME280;29282;45.656;11.302;2023-10-08T10:47:19;99001.47;;;22.62;58.13
33163;BME280;29282;45.656;11.302;2023-10-08T10:49:51;99002.59;;;22.61;58.16
33163;BME280;29282;45.656;11.302;2023-10-08T10:52:29;98999.03;;;22.61;58.34
33163;BME280;29282;45.656;11.302;2023-10-08T10:55:03;98995.13;;;22.62;58.36
33163;BME280;29282;45.656;11.302;2023-10-08T10:57:49;98992.38;;;22.62;58.38
33163;BME280;29282;45.656;11.302;2023-10-08T11:00:20;98995.94;;;22.62;58.13
33163;BME280;29282;45.656;11.302;2023-10-08T11:03:00;98989.59;;;22.62;58.16
33163;BME280;29282;45.656;11.302;2023-10-08T11:05:29;98992.38;;;22.62;57.88
33163;BME280;29282;45.656;11.302;2023-10-08T11:07:57;98987.66;;;22.62;58.23
33163;BME280;29282;45.656;11.302;2023-10-08T11:10:34;98982.91;;;22.63;58.19
33163;BME280;29282;45.656;11.302;2023-10-08T11:13:00;98975.31;;;22.60;57.98
33163;BME280;29282;45.656;11.302;2023-10-08T11:15:30;98970.59;;;22.60;58.15
33163;BME280;29282;45.656;11.302;2023-10-08T11:18:10;98977.28;;;22.59;58.06
33163;BME280;29282;45.656;11.302;2023-10-08T11:20:35;98974.53;;;22.59;58.00
33163;BME280;29282;45.656;11.302;2023-10-08T11:23:39;98965.44;;;22.59;58.35
33163;BME280;29282;45.656;11.302;2023-10-08T11:26:09;98970.97;;;22.59;58.08
33163;BME280;29282;45.656;11.302;2023-10-08T11:28:38;98963.13;;;22.61;58.26
33163;BME280;29282;45.656;11.302;2023-10-08T11:31:17;98952.44;;;22.59;58.30
33163;BME280;29282;45.656;11.302;2023-10-08T11:33:47;98959.56;;;22.60;57.89
33163;BME280;29282;45.656;11.302;2023-10-08T11:36:23;98954.03;;;22.60;58.24
33163;BME280;29282;45.656;11.302;2023-10-08T11:38:56;98956.00;;;22.60;58.07
33163;BME280;29282;45.656;11.302;2023-10-08T11:41:28;98952.06;;;22.61;58.16
33163;BME280;29282;45.656;11.302;2023-10-08T11:44:07;98950.47;;;22.60;58.24
33163;BME280;29282;45.656;11.302;2023-10-08T11:46:38;98950.09;;;22.61;58.36
33163;BME280;29282;45.656;11.302;2023-10-08T11:49:08;98942.19;;;22.60;58.30
33163;BME280;29282;45.656;11.302;2023-10-08T11:51:43;98945.75;;;22.60;58.33
33163;BME280;29282;45.656;11.302;2023-10-08T11:54:08;98943.78;;;22.61;58.18
33163;BME280;29282;45.656;11.302;2023-10-08T11:56:37;98947.34;;;22.61;58.47
33163;BME280;29282;45.656;11.302;2023-10-08T11:59:03;98947.81;;;22.63;58.54
33163;BME280;29282;45.656;11.302;2023-10-08T12:01:37;98945.84;;;22.64;58.74
33163;BME280;29282;45.656;11.302;2023-10-08T12:04:10;98935.28;;;22.66;58.65
33163;BME280;29282;45.656;11.302;2023-10-08T12:06:39;98932.50;;;22.66;59.15
33163;BME280;29282;45.656;11.302;2023-10-08T12:09:15;98929.75;;;22.66;58.96
33163;BME280;29282;45.656;11.302;2023-10-08T12:11:41;98934.47;;;22.65;59.18
33163;BME280;29282;45.656;11.302;2023-10-08T12:14:07;98929.75;;;22.66;59.27
33163;BME280;29282;45.656;11.302;2023-10-08T12:16:34;98924.22;;;22.66;59.21
33163;BME280;29282;45.656;11.302;2023-10-08T12:19:04;98932.50;;;22.66;59.32
33163;BME280;29282;45.656;11.302;2023-10-08T12:21:41;98927.00;;;22.66;59.60
33163;BME280;29282;45.656;11.302;2023-10-08T12:24:07;98924.22;;;22.66;59.44
33163;BME280;29282;45.656;11.302;2023-10-08T12:26:36;98925.03;;;22.66;59.55
33163;BME280;29282;45.656;11.302;2023-10-08T12:29:01;98921.09;;;22.67;59.38
33163;BME280;29282;45.656;11.302;2023-10-08T12:31:27;98918.69;;;22.66;59.73
33163;BME280;29282;45.656;11.302;2023-10-08T12:33:54;98921.47;;;22.66;59.49
33163;BME280;29282;45.656;11.302;2023-10-08T12:36:28;98925.81;;;22.67;59.87
33163;BME280;29282;45.656;11.302;2023-10-08T12:38:58;98920.31;;;22.67;59.26
33163;BME280;29282;45.656;11.302;2023-10-08T12:41:25;98917.91;;;22.65;59.84
33163;BME280;29282;45.656;11.302;2023-10-08T12:43:54;98920.19;;;22.63;59.58
33163;BME280;29282;45.656;11.302;2023-10-08T12:46:20;98927.44;;;22.68;59.53
33163;BME280;29282;45.656;11.302;2023-10-08T12:48:50;98915.25;;;22.69;59.66
33163;BME280;29282;45.656;11.302;2023-10-08T12:51:24;98916.53;;;22.71;59.32
33163;BME280;29282;45.656;11.302;2023-10-08T12:53:50;98910.63;;;22.73;59.10
33163;BME280;29282;45.656;11.302;2023-10-08T12:56:23;98908.66;;;22.73;59.42
33163;BME280;29282;45.656;11.302;2023-10-08T12:58:57;98906.72;;;22.74;58.94
33163;BME280;29282;45.656;11.302;2023-10-08T13:01:23;98904.41;;;22.76;59.03
33163;BME280;29282;45.656;11.302;2023-10-08T13:03:49;98902.91;;;22.79;59.25
33163;BME280;29282;45.656;11.302;2023-10-08T13:06:16;98900.16;;;22.79;59.21
33163;BME280;29282;45.656;11.302;2023-10-08T13:08:54;98910.03;;;22.80;59.34
33163;BME280;29282;45.656;11.302;2023-10-08T13:11:25;98909.69;;;22.81;59.11
33163;BME280;29282;45.656;11.302;2023-10-08T13:13:52;98903.34;;;22.81;58.87
33163;BME280;29282;45.656;11.302;2023-10-08T13:16:19;98897.50;;;22.82;59.11
33163;BME280;29282;45.656;11.302;2023-10-08T13:18:47;98899.09;;;22.83;58.92
33163;BME280;29282;45.656;11.302;2023-10-08T13:21:13;98893.56;;;22.83;59.21
33163;BME280;29282;45.656;11.302;2023-10-08T13:23:39;98899.91;;;22.84;59.05
33163;BME280;29282;45.656;11.302;2023-10-08T13:26:05;98901.84;;;22.83;59.12
33163;BME280;29282;45.656;11.302;2023-10-08T13:28:36;98896.34;;;22.83;58.85